sensor_id;sensor_type;location;lat;lon;timestamp;P1;durP1;ratioP1;P2;durP2;ratioP2
7359;SDS011;3720;48.274;7.796;2024-03-08T00:01:28;50.80;;;26.08;;
7359;SDS011;3720;48.274;7.796;2024-03-08T00:04:00;48.65;;;25.77;;
7359;SDS011;3720;48.274;7.796;2024-03-08T00:06:34;52.97;;;27.45;;
7359;SDS011;3720;48.274;7.796;2024-03-08T00:09:06;48.58;;;25.60;;
7359;SDS011;3720;48.274;7.796;2024-03-08T00:11:38;48.38;;;25.63;;
7359;SDS011;3720;48.274;7.796;2024-03-08T00:14:10;46.85;;;25.27;;
7359;SDS011;3720;48.274;7.796;2024-03-08T00:16:42;45.53;;;24.60;;
7359;SDS011;3720;48.274;7.796;2024-03-08T00:19:14;47.53;;;25.63;;
7359;SDS011;3720;48.274;7.796;2024-03-08T00:21:47;50.10;;;26.10;;
7359;SDS011;3720;48.274;7.796;2024-03-08T00:24:19;45.72;;;24.92;;
7359;SDS011;3720;48.274;7.796;2024-03-08T00:26:54;48.70;;;25.25;;
7359;SDS011;3720;48.274;7.796;2024-03-08T00:29:26;46.78;;;25.05;;
7359;SDS011;3720;48.274;7.796;2024-03-08T00:31:58;44.70;;;24.00;;
7359;SDS011;3720;48.274;7.796;2024-03-08T00:34:30;47.92;;;25.15;;
7359;SDS011;3720;48.274;7.796;2024-03-08T00:37:03;50.35;;;24.95;;
7359;SDS011;3720;48.274;7.796;2024-03-08T00:39:35;48.45;;;25.05;;
7359;SDS011;3720;48.274;7.796;2024-03-08T00:42:07;45.47;;;23.85;;
7359;SDS011;3720;48.274;7.796;2024-03-08T00:44:39;47.92;;;24.42;;
7359;SDS011;3720;48.274;7.796;2024-03-08T00:47:10;48.60;;;24.65;;
7359;SDS011;3720;48.274;7.796;2024-03-08T00:49:42;48.95;;;24.70;;
7359;SDS011;3720;48.274;7.796;2024-03-08T00:52:15;46.67;;;24.52;;
7359;SDS011;3720;48.274;7.796;2024-03-08T00:54:48;41.58;;;22.55;;
7359;SDS011;3720;48.274;7.796;2024-03-08T00:57:20;45.50;;;23.92;;
7359;SDS011;3720;48.274;7.796;2024-03-08T00:59:52;46.92;;;24.30;;
7359;SDS011;3720;48.274;7.796;2024-03-08T01:02:24;42.92;;;22.90;;
7359;SDS011;3720;48.274;7.796;2024-03-08T01:04:56;47.90;;;24.25;;
7359;SDS011;3720;48.274;7.796;2024-03-08T01:07:29;42.00;;;22.90;;
7359;SDS011;3720;48.274;7.796;2024-03-08T01:10:01;43.53;;;23.08;;
7359;SDS011;3720;48.274;7.796;2024-03-08T01:12:33;42.95;;;22.58;;
7359;SDS011;3720;48.274;7.796;2024-03-08T01:15:05;42.65;;;22.20;;
7359;SDS011;3720;48.274;7.796;2024-03-08T01:17:37;46.70;;;23.45;;
7359;SDS011;3720;48.274;7.796;2024-03-08T01:20:09;42.40;;;22.65;;
7359;SDS011;3720;48.274;7.796;2024-03-08T01:22:43;42.65;;;21.77;;
7359;SDS011;3720;48.274;7.796;2024-03-08T01:25:15;42.75;;;22.48;;
7359;SDS011;3720;48.274;7.796;2024-03-08T01:27:47;42.83;;;22.40;;
7359;SDS011;3720;48.274;7.796;2024-03-08T01:30:19;40.88;;;22.23;;
7359;SDS011;3720;48.274;7.796;2024-03-08T01:32:51;41.90;;;23.23;;
7359;SDS011;3720;48.274;7.796;2024-03-08T01:35:23;42.80;;;22.02;;
7359;SDS011;3720;48.274;7.796;2024-03-08T01:37:58;43.15;;;21.45;;
7359;SDS011;3720;48.274;7.796;2024-03-08T01:40:29;42.22;;;22.80;;
7359;SDS011;3720;48.274;7.796;2024-03-08T01:43:15;42.13;;;22.60;;
7359;SDS011;3720;48.274;7.796;2024-03-08T01:45:50;44.30;;;22.52;;
7359;SDS011;3720;48.274;7.796;2024-03-08T01:48:23;41.67;;;22.33;;
7359;SDS011;3720;48.274;7.796;2024-03-08T01:50:55;44.33;;;23.08;;
7359;SDS011;3720;48.274;7.796;2024-03-08T01:53:28;47.10;;;24.15;;
7359;SDS011;3720;48.274;7.796;2024-03-08T01:56:01;48.28;;;23.48;;
7359;SDS011;3720;48.274;7.796;2024-03-08T01:58:33;47.97;;;23.70;;
7359;SDS011;3720;48.274;7.796;2024-03-08T02:01:07;43.70;;;23.02;;
7359;SDS011;3720;48.274;7.796;2024-03-08T02:03:39;43.28;;;22.35;;
7359;SDS011;3720;48.274;7.796;2024-03-08T02:06:13;43.97;;;22.25;;
7359;SDS011;3720;48.274;7.796;2024-03-08T02:08:47;50.35;;;23.92;;
7359;SDS011;3720;48.274;7.796;2024-03-08T02:11:19;44.40;;;23.15;;
7359;SDS011;3720;48.274;7.796;2024-03-08T02:13:51;44.15;;;22.30;;
7359;SDS011;3720;48.274;7.796;2024-03-08T02:16:23;42.25;;;21.92;;
7359;SDS011;3720;48.274;7.796;2024-03-08T02:18:55;45.17;;;22.95;;
7359;SDS011;3720;48.274;7.796;2024-03-08T02:21:28;44.15;;;23.55;;
7359;SDS011;3720;48.274;7.796;2024-03-08T02:24:01;43.47;;;22.10;;
7359;SDS011;3720;48.274;7.796;2024-03-08T02:26:34;43.80;;;22.02;;
7359;SDS011;3720;48.274;7.796;2024-03-08T02:29:05;45.33;;;23.38;;
7359;SDS011;3720;48.274;7.796;2024-03-08T02:31:37;45.30;;;21.85;;
7359;SDS011;3720;48.274;7.796;2024-03-08T02:34:09;45.97;;;23.95;;
7359;SDS011;3720;48.274;7.796;2024-03-08T02:36:42;43.97;;;22.45;;
7359;SDS011;3720;48.274;7.796;2024-03-08T02:39:14;46.83;;;22.75;;
7359;SDS011;3720;48.274;7.796;2024-03-08T02:41:46;42.33;;;22.20;;
7359;SDS011;3720;48.274;7.796;2024-03-08T02:44:18;45.53;;;23.42;;
7359;SDS011;3720;48.274;7.796;2024-03-08T02:46:51;43.38;;;21.85;;
7359;SDS011;3720;48.274;7.796;2024-03-08T02:49:25;42.72;;;21.88;;
7359;SDS011;3720;48.274;7.796;2024-03-08T02:51:58;45.47;;;21.42;;
7359;SDS011;3720;48.274;7.796;2024-03-08T02:54:30;41.55;;;22.00;;
7359;SDS011;3720;48.274;7.796;2024-03-08T02:57:02;44.35;;;21.13;;
7359;SDS011;3720;48.274;7.796;2024-03-08T02:59:34;41.55;;;21.20;;
7359;SDS011;3720;48.274;7.796;2024-03-08T03:02:09;43.53;;;21.42;;
7359;SDS011;3720;48.274;7.796;2024-03-08T03:04:41;44.33;;;22.02;;
7359;SDS011;3720;48.274;7.796;2024-03-08T03:07:15;36.08;;;19.83;;
7359;SDS011;3720;48.274;7.796;2024-03-08T03:09:46;45.67;;;21.05;;
7359;SDS011;3720;48.274;7.796;2024-03-08T03:12:18;41.13;;;21.17;;
7359;SDS011;3720;48.274;7.796;2024-03-08T03:14:50;41.63;;;20.73;;
7359;SDS011;3720;48.274;7.796;2024-03-08T03:17:22;41.10;;;21.35;;
7359;SDS011;3720;48.274;7.796;2024-03-08T03:19:54;37.65;;;20.20;;
7359;SDS011;3720;48.274;7.796;2024-03-08T03:22:28;41.60;;;21.55;;
7359;SDS011;3720;48.274;7.796;2024-03-08T03:25:00;40.08;;;20.65;;
7359;SDS011;3720;48.274;7.796;2024-03-08T03:27:33;41.63;;;21.63;;
7359;SDS011;3720;48.274;7.796;2024-03-08T03:30:05;41.92;;;21.92;;
7359;SDS011;3720;48.274;7.796;2024-03-08T03:32:51;41.15;;;21.38;;
7359;SDS011;3720;48.274;7.796;2024-03-08T03:35:22;41.15;;;21.10;;
7359;SDS011;3720;48.274;7.796;2024-03-08T03:37:56;42.40;;;22.25;;
7359;SDS011;3720;48.274;7.796;2024-03-08T03:40:36;38.88;;;19.63;;
7359;SDS011;3720;48.274;7.796;2024-03-08T03:43:08;45.25;;;21.67;;
7359;SDS011;3720;48.274;7.796;2024-03-08T03:45:41;42.97;;;21.17;;
7359;SDS011;3720;48.274;7.796;2024-03-08T03:48:13;38.03;;;19.45;;
7359;SDS011;3720;48.274;7.796;2024-03-08T03:50:44;35.72;;;18.45;;
7359;SDS011;3720;48.274;7.796;2024-03-08T03:53:18;33.88;;;17.25;;
7359;SDS011;3720;48.274;7.796;2024-03-08T03:55:49;38.10;;;19.35;;
7359;SDS011;3720;48.274;7.796;2024-03-08T03:58:21;37.35;;;19.13;;
7359;SDS011;3720;48.274;7.796;2024-03-08T04:00:53;38.75;;;19.70;;
7359;SDS011;3720;48.274;7.796;2024-03-08T04:03:25;38.80;;;19.10;;
7359;SDS011;3720;48.274;7.796;2024-03-08T04:05:57;40.55;;;20.52;;
7359;SDS011;3720;48.274;7.796;2024-03-08T04:08:30;41.05;;;19.92;;
7359;SDS011;3720;48.274;7.796;2024-03-08T04:11:04;42.25;;;21.23;;
7359;SDS011;3720;48.274;7.796;2024-03-08T04:13:36;42.92;;;21.02;;
7359;SDS011;3720;48.274;7.796;2024-03-08T04:16:07;42.30;;;21.00;;
7359;SDS011;3720;48.274;7.796;2024-03-08T04:18:41;37.70;;;19.90;;
7359;SDS011;3720;48.274;7.796;2024-03-08T04:21:14;41.75;;;20.73;;
7359;SDS011;3720;48.274;7.796;2024-03-08T04:23:47;38.97;;;20.45;;
7359;SDS011;3720;48.274;7.796;2024-03-08T04:26:19;39.90;;;19.75;;
7359;SDS011;3720;48.274;7.796;2024-03-08T04:28:51;41.10;;;21.02;;
7359;SDS011;3720;48.274;7.796;2024-03-08T04:31:22;41.05;;;20.70;;
7359;SDS011;3720;48.274;7.796;2024-03-08T04:33:56;38.83;;;19.08;;
7359;SDS011;3720;48.274;7.796;2024-03-08T04:36:28;38.13;;;19.17;;
7359;SDS011;3720;48.274;7.796;2024-03-08T04:39:01;44.22;;;19.90;;
7359;SDS011;3720;48.274;7.796;2024-03-08T04:41:33;42.55;;;21.45;;
7359;SDS011;3720;48.274;7.796;2024-03-08T04:44:07;39.38;;;20.08;;
7359;SDS011;3720;48.274;7.796;2024-03-08T04:46:39;40.08;;;20.50;;
7359;SDS011;3720;48.274;7.796;2024-03-08T04:49:11;40.30;;;20.10;;
7359;SDS011;3720;48.274;7.796;2024-03-08T04:51:43;45.42;;;21.00;;
7359;SDS011;3720;48.274;7.796;2024-03-08T04:54:17;41.63;;;21.20;;
7359;SDS011;3720;48.274;7.796;2024-03-08T04:56:49;41.05;;;20.92;;
7359;SDS011;3720;48.274;7.796;2024-03-08T04:59:21;41.13;;;21.55;;
7359;SDS011;3720;48.274;7.796;2024-03-08T05:01:54;42.67;;;21.65;;
7359;SDS011;3720;48.274;7.796;2024-03-08T05:04:26;40.00;;;21.17;;
7359;SDS011;3720;48.274;7.796;2024-03-08T05:06:59;39.22;;;19.50;;
7359;SDS011;3720;48.274;7.796;2024-03-08T05:09:32;43.85;;;21.05;;
7359;SDS011;3720;48.274;7.796;2024-03-08T05:12:06;41.10;;;19.95;;
7359;SDS011;3720;48.274;7.796;2024-03-08T05:14:38;39.10;;;20.20;;
7359;SDS011;3720;48.274;7.796;2024-03-08T05:17:10;40.08;;;20.02;;
7359;SDS011;3720;48.274;7.796;2024-03-08T05:19:41;40.72;;;20.02;;
7359;SDS011;3720;48.274;7.796;2024-03-08T05:22:13;40.88;;;19.55;;
7359;SDS011;3720;48.274;7.796;2024-03-08T05:24:47;39.85;;;20.30;;
7359;SDS011;3720;48.274;7.796;2024-03-08T05:27:18;40.22;;;20.52;;
7359;SDS011;3720;48.274;7.796;2024-03-08T05:29:50;38.30;;;19.60;;
7359;SDS011;3720;48.274;7.796;2024-03-08T05:32:22;38.63;;;19.70;;
7359;SDS011;3720;48.274;7.796;2024-03-08T05:34:55;41.15;;;20.58;;
7359;SDS011;3720;48.274;7.796;2024-03-08T05:37:26;40.42;;;20.80;;
7359;SDS011;3720;48.274;7.796;2024-03-08T05:40:00;43.78;;;21.67;;
7359;SDS011;3720;48.274;7.796;2024-03-08T05:42:31;37.95;;;19.65;;
7359;SDS011;3720;48.274;7.796;2024-03-08T05:45:03;41.40;;;20.40;;
7359;SDS011;3720;48.274;7.796;2024-03-08T05:47:36;42.75;;;20.27;;
7359;SDS011;3720;48.274;7.796;2024-03-08T05:50:10;42.42;;;20.23;;
7359;SDS011;3720;48.274;7.796;2024-03-08T05:52:42;38.40;;;19.27;;
7359;SDS011;3720;48.274;7.796;2024-03-08T05:55:15;38.53;;;19.65;;
7359;SDS011;3720;48.274;7.796;2024-03-08T05:57:47;35.00;;;18.08;;
7359;SDS011;3720;48.274;7.796;2024-03-08T06:00:19;38.80;;;18.73;;
7359;SDS011;3720;48.274;7.796;2024-03-08T06:02:52;38.70;;;19.52;;
7359;SDS011;3720;48.274;7.796;2024-03-08T06:05:24;38.28;;;18.80;;
7359;SDS011;3720;48.274;7.796;2024-03-08T06:07:55;36.40;;;18.20;;
7359;SDS011;3720;48.274;7.796;2024-03-08T06:10:29;40.10;;;19.13;;
7359;SDS011;3720;48.274;7.796;2024-03-08T06:13:00;38.33;;;18.63;;
7359;SDS011;3720;48.274;7.796;2024-03-08T06:15:32;35.13;;;18.23;;
7359;SDS011;3720;48.274;7.796;2024-03-08T06:18:05;38.35;;;18.30;;
7359;SDS011;3720;48.274;7.796;2024-03-08T06:20:40;37.40;;;19.02;;
7359;SDS011;3720;48.274;7.796;2024-03-08T06:23:13;40.42;;;20.10;;
7359;SDS011;3720;48.274;7.796;2024-03-08T06:25:49;40.72;;;19.48;;
7359;SDS011;3720;48.274;7.796;2024-03-08T06:28:20;40.17;;;20.33;;
7359;SDS011;3720;48.274;7.796;2024-03-08T06:30:52;40.83;;;20.20;;
7359;SDS011;3720;48.274;7.796;2024-03-08T06:33:24;45.33;;;21.42;;
7359;SDS011;3720;48.274;7.796;2024-03-08T06:35:56;44.40;;;21.65;;
7359;SDS011;3720;48.274;7.796;2024-03-08T06:38:28;42.15;;;20.50;;
7359;SDS011;3720;48.274;7.796;2024-03-08T06:41:02;42.75;;;19.88;;
7359;SDS011;3720;48.274;7.796;2024-03-08T06:43:34;42.35;;;20.88;;
7359;SDS011;3720;48.274;7.796;2024-03-08T06:46:06;41.28;;;20.90;;
7359;SDS011;3720;48.274;7.796;2024-03-08T06:48:38;44.78;;;22.23;;
7359;SDS011;3720;48.274;7.796;2024-03-08T06:51:09;47.50;;;23.10;;
7359;SDS011;3720;48.274;7.796;2024-03-08T06:53:41;51.13;;;24.52;;
7359;SDS011;3720;48.274;7.796;2024-03-08T06:56:14;45.35;;;22.92;;
7359;SDS011;3720;48.274;7.796;2024-03-08T06:58:46;47.25;;;23.50;;
7359;SDS011;3720;48.274;7.796;2024-03-08T07:01:18;46.75;;;22.98;;
7359;SDS011;3720;48.274;7.796;2024-03-08T07:03:51;45.80;;;22.48;;
7359;SDS011;3720;48.274;7.796;2024-03-08T07:06:23;51.90;;;23.65;;
7359;SDS011;3720;48.274;7.796;2024-03-08T07:08:55;46.53;;;23.85;;
7359;SDS011;3720;48.274;7.796;2024-03-08T07:11:28;45.25;;;22.88;;
7359;SDS011;3720;48.274;7.796;2024-03-08T07:14:00;47.20;;;22.95;;
7359;SDS011;3720;48.274;7.796;2024-03-08T07:16:35;50.67;;;23.95;;
7359;SDS011;3720;48.274;7.796;2024-03-08T07:19:08;51.65;;;25.88;;
7359;SDS011;3720;48.274;7.796;2024-03-08T07:21:40;47.63;;;23.92;;
7359;SDS011;3720;48.274;7.796;2024-03-08T07:24:12;48.15;;;24.23;;
7359;SDS011;3720;48.274;7.796;2024-03-08T07:27:09;43.67;;;22.48;;
7359;SDS011;3720;48.274;7.796;2024-03-08T07:29:42;45.28;;;22.73;;
7359;SDS011;3720;48.274;7.796;2024-03-08T07:32:13;49.67;;;24.23;;
7359;SDS011;3720;48.274;7.796;2024-03-08T07:34:51;45.45;;;23.27;;
7359;SDS011;3720;48.274;7.796;2024-03-08T07:37:23;45.38;;;22.65;;
7359;SDS011;3720;48.274;7.796;2024-03-08T07:39:55;45.78;;;22.42;;
7359;SDS011;3720;48.274;7.796;2024-03-08T07:42:29;46.95;;;23.23;;
7359;SDS011;3720;48.274;7.796;2024-03-08T07:45:01;46.05;;;22.70;;
7359;SDS011;3720;48.274;7.796;2024-03-08T07:47:34;49.45;;;23.83;;
7359;SDS011;3720;48.274;7.796;2024-03-08T07:50:07;46.70;;;23.02;;
7359;SDS011;3720;48.274;7.796;2024-03-08T07:52:39;45.95;;;24.00;;
7359;SDS011;3720;48.274;7.796;2024-03-08T07:55:11;58.10;;;29.92;;
7359;SDS011;3720;48.274;7.796;2024-03-08T07:57:45;62.42;;;31.25;;
7359;SDS011;3720;48.274;7.796;2024-03-08T08:00:18;56.70;;;28.00;;
7359;SDS011;3720;48.274;7.796;2024-03-08T08:02:50;55.75;;;27.15;;
7359;SDS011;3720;48.274;7.796;2024-03-08T08:05:22;52.05;;;26.38;;
7359;SDS011;3720;48.274;7.796;2024-03-08T08:07:53;52.85;;;26.80;;
7359;SDS011;3720;48.274;7.796;2024-03-08T08:10:26;51.90;;;25.70;;
7359;SDS011;3720;48.274;7.796;2024-03-08T08:13:00;52.03;;;26.45;;
7359;SDS011;3720;48.274;7.796;2024-03-08T08:15:34;54.60;;;27.02;;
7359;SDS011;3720;48.274;7.796;2024-03-08T08:18:06;52.67;;;26.50;;
7359;SDS011;3720;48.274;7.796;2024-03-08T08:20:39;53.47;;;26.73;;
7359;SDS011;3720;48.274;7.796;2024-03-08T08:23:11;55.53;;;27.10;;
7359;SDS011;3720;48.274;7.796;2024-03-08T08:25:43;51.13;;;25.50;;
7359;SDS011;3720;48.274;7.796;2024-03-08T08:28:17;51.97;;;25.85;;
7359;SDS011;3720;48.274;7.796;2024-03-08T08:30:49;51.65;;;27.50;;
7359;SDS011;3720;48.274;7.796;2024-03-08T08:33:22;49.85;;;26.13;;
7359;SDS011;3720;48.274;7.796;2024-03-08T08:35:55;54.17;;;27.52;;
7359;SDS011;3720;48.274;7.796;2024-03-08T08:38:28;53.03;;;26.45;;
7359;SDS011;3720;48.274;7.796;2024-03-08T08:41:00;51.30;;;27.60;;
7359;SDS011;3720;48.274;7.796;2024-03-08T08:43:33;52.30;;;27.65;;
7359;SDS011;3720;48.274;7.796;2024-03-08T08:46:05;54.72;;;28.55;;
7359;SDS011;3720;48.274;7.796;2024-03-08T08:48:37;55.70;;;28.90;;
7359;SDS011;3720;48.274;7.796;2024-03-08T08:51:10;50.08;;;26.55;;
7359;SDS011;3720;48.274;7.796;2024-03-08T08:53:42;47.90;;;26.40;;
7359;SDS011;3720;48.274;7.796;2024-03-08T08:56:15;48.20;;;26.92;;
7359;SDS011;3720;48.274;7.796;2024-03-08T08:58:50;48.88;;;27.00;;
7359;SDS011;3720;48.274;7.796;2024-03-08T09:01:23;51.00;;;26.45;;
7359;SDS011;3720;48.274;7.796;2024-03-08T09:03:55;53.33;;;28.35;;
7359;SDS011;3720;48.274;7.796;2024-03-08T09:06:27;52.45;;;28.00;;
7359;SDS011;3720;48.274;7.796;2024-03-08T09:08:59;48.45;;;26.35;;
7359;SDS011;3720;48.274;7.796;2024-03-08T09:11:32;47.60;;;26.02;;
7359;SDS011;3720;48.274;7.796;2024-03-08T09:14:06;48.30;;;26.77;;
7359;SDS011;3720;48.274;7.796;2024-03-08T09:16:37;48.78;;;26.90;;
7359;SDS011;3720;48.274;7.796;2024-03-08T09:19:09;44.65;;;25.20;;
7359;SDS011;3720;48.274;7.796;2024-03-08T09:21:41;44.10;;;24.13;;
7359;SDS011;3720;48.274;7.796;2024-03-08T09:24:13;41.10;;;24.13;;
7359;SDS011;3720;48.274;7.796;2024-03-08T09:26:46;41.35;;;23.50;;
7359;SDS011;3720;48.274;7.796;2024-03-08T09:29:19;40.70;;;23.65;;
7359;SDS011;3720;48.274;7.796;2024-03-08T09:31:51;43.45;;;24.33;;
7359;SDS011;3720;48.274;7.796;2024-03-08T09:34:22;38.30;;;22.25;;
7359;SDS011;3720;48.274;7.796;2024-03-08T09:36:54;37.55;;;22.58;;
7359;SDS011;3720;48.274;7.796;2024-03-08T09:39:26;39.67;;;22.83;;
7359;SDS011;3720;48.274;7.796;2024-03-08T09:41:58;37.40;;;22.27;;
7359;SDS011;3720;48.274;7.796;2024-03-08T09:44:32;38.92;;;22.67;;
7359;SDS011;3720;48.274;7.796;2024-03-08T09:47:05;36.92;;;21.63;;
7359;SDS011;3720;48.274;7.796;2024-03-08T09:49:37;38.60;;;21.67;;
7359;SDS011;3720;48.274;7.796;2024-03-08T09:52:09;34.85;;;21.33;;
7359;SDS011;3720;48.274;7.796;2024-03-08T09:54:42;35.28;;;21.38;;
7359;SDS011;3720;48.274;7.796;2024-03-08T09:57:14;36.10;;;21.25;;
7359;SDS011;3720;48.274;7.796;2024-03-08T09:59:48;34.45;;;20.30;;
7359;SDS011;3720;48.274;7.796;2024-03-08T10:02:20;37.28;;;20.63;;
7359;SDS011;3720;48.274;7.796;2024-03-08T10:04:53;33.67;;;20.10;;
7359;SDS011;3720;48.274;7.796;2024-03-08T10:07:24;34.53;;;19.70;;
7359;SDS011;3720;48.274;7.796;2024-03-08T10:09:56;32.80;;;19.67;;
7359;SDS011;3720;48.274;7.796;2024-03-08T10:12:29;31.10;;;19.08;;
7359;SDS011;3720;48.274;7.796;2024-03-08T10:15:03;35.63;;;19.30;;
7359;SDS011;3720;48.274;7.796;2024-03-08T10:17:37;31.02;;;17.55;;
7359;SDS011;3720;48.274;7.796;2024-03-08T10:20:13;27.98;;;17.27;;
7359;SDS011;3720;48.274;7.796;2024-03-08T10:22:46;25.80;;;16.35;;
7359;SDS011;3720;48.274;7.796;2024-03-08T10:25:18;27.08;;;16.77;;
7359;SDS011;3720;48.274;7.796;2024-03-08T10:27:50;27.77;;;17.98;;
7359;SDS011;3720;48.274;7.796;2024-03-08T10:30:23;27.33;;;15.63;;
7359;SDS011;3720;48.274;7.796;2024-03-08T10:32:55;23.55;;;15.23;;
7359;SDS011;3720;48.274;7.796;2024-03-08T10:35:28;23.08;;;15.10;;
7359;SDS011;3720;48.274;7.796;2024-03-08T10:38:00;23.98;;;15.07;;
7359;SDS011;3720;48.274;7.796;2024-03-08T10:40:37;23.05;;;14.90;;
7359;SDS011;3720;48.274;7.796;2024-03-08T10:43:12;24.08;;;14.85;;
7359;SDS011;3720;48.274;7.796;2024-03-08T10:45:59;23.45;;;15.75;;
7359;SDS011;3720;48.274;7.796;2024-03-08T10:48:40;24.60;;;15.35;;
7359;SDS011;3720;48.274;7.796;2024-03-08T10:51:14;23.83;;;15.25;;
7359;SDS011;3720;48.274;7.796;2024-03-08T10:53:47;23.30;;;15.27;;
7359;SDS011;3720;48.274;7.796;2024-03-08T10:56:21;30.27;;;15.65;;
7359;SDS011;3720;48.274;7.796;2024-03-08T10:58:53;26.77;;;15.48;;
7359;SDS011;3720;48.274;7.796;2024-03-08T11:01:27;22.73;;;15.27;;
7359;SDS011;3720;48.274;7.796;2024-03-08T11:03:59;23.55;;;15.40;;
7359;SDS011;3720;48.274;7.796;2024-03-08T11:06:41;22.92;;;15.32;;
7359;SDS011;3720;48.274;7.796;2024-03-08T11:09:28;21.27;;;14.65;;
7359;SDS011;3720;48.274;7.796;2024-03-08T11:12:19;24.10;;;15.70;;
7359;SDS011;3720;48.274;7.796;2024-03-08T11:14:55;21.33;;;14.45;;
7359;SDS011;3720;48.274;7.796;2024-03-08T11:17:44;23.02;;;14.57;;
7359;SDS011;3720;48.274;7.796;2024-03-08T11:20:18;20.20;;;14.60;;
7359;SDS011;3720;48.274;7.796;2024-03-08T11:22:52;20.15;;;14.85;;
7359;SDS011;3720;48.274;7.796;2024-03-08T11:25:34;19.13;;;13.32;;
7359;SDS011;3720;48.274;7.796;2024-03-08T11:28:11;21.38;;;14.18;;
7359;SDS011;3720;48.274;7.796;2024-03-08T11:33:54;20.60;;;13.75;;
7359;SDS011;3720;48.274;7.796;2024-03-08T11:36:27;19.60;;;14.75;;
7359;SDS011;3720;48.274;7.796;2024-03-08T11:39:00;20.27;;;14.30;;
7359;SDS011;3720;48.274;7.796;2024-03-08T11:41:39;20.33;;;13.40;;
7359;SDS011;3720;48.274;7.796;2024-03-08T11:44:12;20.10;;;14.27;;
7359;SDS011;3720;48.274;7.796;2024-03-08T11:46:46;20.35;;;14.35;;
7359;SDS011;3720;48.274;7.796;2024-03-08T11:49:19;19.90;;;14.13;;
7359;SDS011;3720;48.274;7.796;2024-03-08T11:51:52;18.60;;;13.77;;
7359;SDS011;3720;48.274;7.796;2024-03-08T11:54:24;18.67;;;13.57;;
7359;SDS011;3720;48.274;7.796;2024-03-08T11:56:56;20.83;;;13.82;;
7359;SDS011;3720;48.274;7.796;2024-03-08T11:59:30;19.15;;;14.15;;
7359;SDS011;3720;48.274;7.796;2024-03-08T12:02:03;19.40;;;14.32;;
7359;SDS011;3720;48.274;7.796;2024-03-08T12:04:37;21.08;;;13.85;;
7359;SDS011;3720;48.274;7.796;2024-03-08T12:07:10;19.60;;;13.73;;
7359;SDS011;3720;48.274;7.796;2024-03-08T12:09:44;20.33;;;14.88;;
7359;SDS011;3720;48.274;7.796;2024-03-08T12:12:46;19.77;;;14.65;;
7359;SDS011;3720;48.274;7.796;2024-03-08T12:15:19;17.67;;;13.43;;
7359;SDS011;3720;48.274;7.796;2024-03-08T12:17:53;21.10;;;14.52;;
7359;SDS011;3720;48.274;7.796;2024-03-08T12:20:28;19.77;;;14.73;;
7359;SDS011;3720;48.274;7.796;2024-03-08T12:23:01;18.90;;;14.23;;
7359;SDS011;3720;48.274;7.796;2024-03-08T12:25:33;18.08;;;12.85;;
7359;SDS011;3720;48.274;7.796;2024-03-08T12:28:09;20.63;;;13.32;;
7359;SDS011;3720;48.274;7.796;2024-03-08T12:30:46;17.92;;;13.82;;
7359;SDS011;3720;48.274;7.796;2024-03-08T12:33:19;18.45;;;13.65;;
7359;SDS011;3720;48.274;7.796;2024-03-08T12:35:53;20.48;;;13.77;;
7359;SDS011;3720;48.274;7.796;2024-03-08T12:38:28;18.02;;;13.82;;
7359;SDS011;3720;48.274;7.796;2024-03-08T12:41:01;18.98;;;13.52;;
7359;SDS011;3720;48.274;7.796;2024-03-08T12:43:34;18.45;;;13.60;;
7359;SDS011;3720;48.274;7.796;2024-03-08T12:46:06;19.75;;;13.32;;
7359;SDS011;3720;48.274;7.796;2024-03-08T12:48:39;20.15;;;14.48;;
7359;SDS011;3720;48.274;7.796;2024-03-08T12:51:13;18.77;;;13.95;;
7359;SDS011;3720;48.274;7.796;2024-03-08T12:53:46;19.27;;;14.27;;
7359;SDS011;3720;48.274;7.796;2024-03-08T12:56:20;19.23;;;13.85;;
7359;SDS011;3720;48.274;7.796;2024-03-08T12:59:00;19.85;;;13.90;;
7359;SDS011;3720;48.274;7.796;2024-03-08T13:01:33;20.00;;;14.05;;
7359;SDS011;3720;48.274;7.796;2024-03-08T13:04:07;18.75;;;13.93;;
7359;SDS011;3720;48.274;7.796;2024-03-08T13:06:42;18.67;;;13.27;;
7359;SDS011;3720;48.274;7.796;2024-03-08T13:09:16;17.75;;;12.93;;
7359;SDS011;3720;48.274;7.796;2024-03-08T13:11:50;17.80;;;13.65;;
7359;SDS011;3720;48.274;7.796;2024-03-08T13:14:21;18.65;;;14.05;;
7359;SDS011;3720;48.274;7.796;2024-03-08T13:16:53;17.73;;;12.73;;
7359;SDS011;3720;48.274;7.796;2024-03-08T13:19:25;18.33;;;13.30;;
7359;SDS011;3720;48.274;7.796;2024-03-08T13:21:59;18.70;;;13.93;;
7359;SDS011;3720;48.274;7.796;2024-03-08T13:24:34;16.35;;;12.50;;
7359;SDS011;3720;48.274;7.796;2024-03-08T13:27:06;16.85;;;12.95;;
7359;SDS011;3720;48.274;7.796;2024-03-08T13:29:49;16.55;;;12.27;;
7359;SDS011;3720;48.274;7.796;2024-03-08T13:32:21;20.50;;;13.70;;
7359;SDS011;3720;48.274;7.796;2024-03-08T13:34:54;20.33;;;14.35;;
7359;SDS011;3720;48.274;7.796;2024-03-08T13:37:27;17.52;;;13.07;;
7359;SDS011;3720;48.274;7.796;2024-03-08T13:39:59;17.58;;;13.35;;
7359;SDS011;3720;48.274;7.796;2024-03-08T13:42:31;18.45;;;12.95;;
7359;SDS011;3720;48.274;7.796;2024-03-08T13:45:03;18.13;;;12.93;;
7359;SDS011;3720;48.274;7.796;2024-03-08T13:47:37;16.08;;;12.27;;
7359;SDS011;3720;48.274;7.796;2024-03-08T13:50:10;19.00;;;13.90;;
7359;SDS011;3720;48.274;7.796;2024-03-08T13:52:44;17.50;;;13.27;;
7359;SDS011;3720;48.274;7.796;2024-03-08T13:55:16;17.27;;;13.15;;
7359;SDS011;3720;48.274;7.796;2024-03-08T13:57:48;17.17;;;12.45;;
7359;SDS011;3720;48.274;7.796;2024-03-08T14:00:21;19.20;;;13.13;;
7359;SDS011;3720;48.274;7.796;2024-03-08T14:02:55;17.67;;;12.40;;
7359;SDS011;3720;48.274;7.796;2024-03-08T14:05:27;19.00;;;12.68;;
7359;SDS011;3720;48.274;7.796;2024-03-08T14:08:03;16.23;;;11.80;;
7359;SDS011;3720;48.274;7.796;2024-03-08T14:10:37;19.08;;;13.27;;
7359;SDS011;3720;48.274;7.796;2024-03-08T14:13:09;17.67;;;13.65;;
7359;SDS011;3720;48.274;7.796;2024-03-08T14:15:41;16.55;;;12.38;;
7359;SDS011;3720;48.274;7.796;2024-03-08T14:18:16;15.75;;;11.93;;
7359;SDS011;3720;48.274;7.796;2024-03-08T14:20:48;17.48;;;12.60;;
7359;SDS011;3720;48.274;7.796;2024-03-08T14:23:22;18.30;;;12.55;;
7359;SDS011;3720;48.274;7.796;2024-03-08T14:25:54;19.38;;;12.57;;
7359;SDS011;3720;48.274;7.796;2024-03-08T14:28:26;17.25;;;12.48;;
7359;SDS011;3720;48.274;7.796;2024-03-08T14:30:58;17.30;;;12.82;;
7359;SDS011;3720;48.274;7.796;2024-03-08T14:33:32;18.25;;;13.02;;
7359;SDS011;3720;48.274;7.796;2024-03-08T14:36:05;18.30;;;12.48;;
7359;SDS011;3720;48.274;7.796;2024-03-08T14:38:38;18.65;;;12.82;;
7359;SDS011;3720;48.274;7.796;2024-03-08T14:41:10;15.85;;;11.55;;
7359;SDS011;3720;48.274;7.796;2024-03-08T14:43:42;16.25;;;11.98;;
7359;SDS011;3720;48.274;7.796;2024-03-08T14:46:15;17.17;;;12.35;;
7359;SDS011;3720;48.274;7.796;2024-03-08T14:48:48;18.42;;;12.90;;
7359;SDS011;3720;48.274;7.796;2024-03-08T14:51:21;17.88;;;13.48;;
7359;SDS011;3720;48.274;7.796;2024-03-08T14:53:57;16.92;;;12.80;;
7359;SDS011;3720;48.274;7.796;2024-03-08T14:56:29;18.63;;;12.63;;
7359;SDS011;3720;48.274;7.796;2024-03-08T14:59:01;19.90;;;13.82;;
7359;SDS011;3720;48.274;7.796;2024-03-08T15:01:35;18.98;;;13.30;;
7359;SDS011;3720;48.274;7.796;2024-03-08T15:04:07;16.60;;;12.50;;
7359;SDS011;3720;48.274;7.796;2024-03-08T15:06:40;19.40;;;14.13;;
7359;SDS011;3720;48.274;7.796;2024-03-08T15:09:14;17.48;;;13.02;;
7359;SDS011;3720;48.274;7.796;2024-03-08T15:11:48;19.40;;;13.18;;
7359;SDS011;3720;48.274;7.796;2024-03-08T15:14:20;19.10;;;13.48;;
7359;SDS011;3720;48.274;7.796;2024-03-08T15:16:52;20.08;;;13.35;;
7359;SDS011;3720;48.274;7.796;2024-03-08T15:19:24;19.17;;;13.82;;
7359;SDS011;3720;48.274;7.796;2024-03-08T15:21:57;19.98;;;14.00;;
7359;SDS011;3720;48.274;7.796;2024-03-08T15:24:31;23.02;;;15.27;;
7359;SDS011;3720;48.274;7.796;2024-03-08T15:27:03;20.55;;;14.10;;